Current Weather

Aeroparque Jorge Newbery

Aeroparque Jorge Newbery, Argentina (SABE)

Report from: Wednesday, September 28, 2022 6:00 AM -03
Current time: Wednesday, September 28, 2022 7:03 AM -03

Nearby weather
Weather history
Weather forecast

Temperature11.0°C (51.8°F)
Dew point6.0°C (42.8°F)
Winds 7 kts (3.6 m/s, 8.1 mph) Vrb
Winds variableWinds variable from East-Southeast (120°) to South-Southwest (210°)
Clouds Sky clear
Altimeter30.36 in.Hg (1028 mB)
Relative humidity71 %
Density altitude-839 ft. (-256 m)
Remarks Ceiling and visibility OK
Corrected report
No significant changes expected in the next two hours
Flight conditions Visual Meteorological Conditions
Raw dataCOR SABE 280900Z 15007KT 210V120 CAVOK 11/06 Q1028 NOSIG
An error has occurred. This application may no longer respond until reloaded. Reload 🗙